Time;durP1;ratioP1;P1;durP2;ratioP2;P2;SDS_P1;SDS_P2;PMS_P1;PMS_P2;Temp;Humidity;BMP_temperature;BMP_pressure;BME280_temperature;BME280_humidity;BME280_pressure;Samples;Min_cycle;Max_cycle;Signal;HPM_P1;HPM_P2
2022/01/24 00:01:26;;;;;;;0.85;0.50;;;20.90;44.60;;;;;;5094505;28;20032;-44
2022/01/24 00:03:56;;;;;;;0.73;0.50;;;20.90;44.50;;;;;;5098342;28;20024;-44
2022/01/24 00:06:26;;;;;;;0.50;0.38;;;20.90;44.50;;;;;;5103765;28;20032;-48
2022/01/24 00:08:52;;;;;;;1.00;0.40;;;20.90;44.60;;;;;;5085615;28;20020;-46
2022/01/24 00:11:22;;;;;;;0.50;0.50;;;20.90;44.70;;;;;;5103209;28;20059;-44
2022/01/24 00:27:00;;;;;;;0.40;0.40;;;20.80;44.80;;;;;;5103498;28;20024;-49
2022/01/24 00:29:26;;;;;;;0.47;0.40;;;20.90;44.80;;;;;;5103199;28;20054;-45
2022/01/24 00:31:53;;;;;;;1.08;0.60;;;20.80;44.70;;;;;;5103591;28;20044;-45
2022/01/24 00:34:19;;;;;;;0.50;0.40;;;20.80;44.70;;;;;;5102784;28;20523;-44
2022/01/24 00:36:49;;;;;;;0.63;0.40;;;20.80;44.70;;;;;;5103737;28;20126;-46
2022/01/24 00:39:15;;;;;;;0.75;0.50;;;20.80;44.70;;;;;;5105687;28;20048;-47
2022/01/24 00:47:00;;;;;;;0.77;0.70;;;20.80;45.00;;;;;;5103095;28;20024;-45
2022/01/24 00:54:55;;;;;;;0.70;0.50;;;20.70;44.80;;;;;;5102570;28;20063;-45
2022/01/24 00:57:21;;;;;;;0.93;0.50;;;20.70;44.80;;;;;;5102935;28;20032;-45
2022/01/24 00:59:48;;;;;;;0.50;0.40;;;20.70;45.00;;;;;;5105151;28;20024;-44
2022/01/24 01:02:15;;;;;;;0.50;0.50;;;20.70;45.10;;;;;;5089434;28;20032;-47
2022/01/24 01:07:27;;;;;;;0.65;0.50;;;20.70;45.00;;;;;;5102687;28;20024;-44
2022/01/24 01:20:48;;;;;;;0.95;0.63;;;20.70;45.10;;;;;;5102494;28;20051;-44
2022/01/24 01:23:15;;;;;;;0.52;0.50;;;20.80;45.10;;;;;;5093033;28;20084;-45
2022/01/24 01:25:42;;;;;;;0.68;0.50;;;20.70;45.00;;;;;;5097806;28;20051;-49
2022/01/24 01:28:09;;;;;;;0.70;0.50;;;20.70;45.00;;;;;;5079948;28;20040;-44
2022/01/24 01:30:43;;;;;;;1.33;0.75;;;20.60;45.10;;;;;;5100850;28;20036;-46
2022/01/24 01:33:19;;;;;;;0.75;0.65;;;20.60;45.10;;;;;;5102084;28;20102;-46
2022/01/24 01:36:06;;;;;;;1.00;0.68;;;20.60;45.10;;;;;;5102202;28;20036;-45
2022/01/24 01:53:03;;;;;;;1.02;0.82;;;20.60;45.20;;;;;;5102256;28;20039;-46
2022/01/24 01:55:40;;;;;;;1.40;0.93;;;20.70;45.30;;;;;;5101089;28;20032;-46
2022/01/24 01:58:13;;;;;;;1.60;0.90;;;20.70;45.10;;;;;;5098835;28;20489;-45
2022/01/24 02:00:41;;;;;;;1.83;0.80;;;20.60;45.00;;;;;;5098879;28;20032;-46
2022/01/24 02:03:08;;;;;;;2.38;0.80;;;20.60;45.10;;;;;;5090757;28;20032;-46
2022/01/24 02:05:35;;;;;;;1.55;0.90;;;20.60;45.10;;;;;;5101857;28;20755;-46
2022/01/24 02:08:01;;;;;;;1.58;1.00;;;20.60;45.10;;;;;;5101882;28;20097;-48
2022/01/24 02:10:27;;;;;;;1.20;0.90;;;20.60;45.20;;;;;;5083330;28;20028;-45
2022/01/24 02:12:55;;;;;;;2.55;0.95;;;20.60;45.30;;;;;;5097802;28;20036;-48
2022/01/24 02:15:43;;;;;;;0.95;0.90;;;20.70;45.20;;;;;;5090759;28;20075;-48
2022/01/24 02:21:42;;;;;;;1.20;1.00;;;20.60;45.10;;;;;;5105347;28;20028;-50
2022/01/24 02:23:38;;;;;;;1.33;1.00;;;20.60;45.00;;;;;;5077335;28;20032;-47
2022/01/24 02:26:10;;;;;;;1.50;1.00;;;20.60;45.20;;;;;;5105640;28;20048;-47
2022/01/24 02:29:16;;;;;;;1.40;1.30;;;20.60;45.30;;;;;;5090899;28;20059;-46
2022/01/24 02:31:42;;;;;;;1.42;1.10;;;20.60;45.30;;;;;;5098783;28;20063;-45
2022/01/24 02:34:45;;;;;;;1.33;1.00;;;20.60;45.10;;;;;;5110089;28;20039;-45
2022/01/24 02:37:15;;;;;;;1.10;1.00;;;20.60;45.10;;;;;;5042467;28;20050;-47
2022/01/24 02:39:48;;;;;;;1.20;0.95;;;20.60;45.10;;;;;;5042557;28;20535;-48
2022/01/24 02:50:51;;;;;;;1.25;0.90;;;20.60;45.20;;;;;;4989322;28;20081;-48
2022/01/24 02:53:17;;;;;;;1.33;1.20;;;20.60;45.20;;;;;;5003022;28;20035;-45
2022/01/24 02:55:45;;;;;;;1.50;1.20;;;20.60;45.20;;;;;;5006731;28;20030;-44
2022/01/24 02:58:11;;;;;;;1.42;1.10;;;20.50;45.10;;;;;;5024602;28;20100;-44
2022/01/24 03:00:37;;;;;;;1.52;1.23;;;20.50;45.20;;;;;;5005714;28;20042;-44
2022/01/24 03:03:04;;;;;;;1.37;1.20;;;20.50;45.20;;;;;;5021936;28;20026;-44
2022/01/24 03:05:30;;;;;;;1.48;1.13;;;20.50;45.20;;;;;;5022042;28;20076;-45
2022/01/24 03:07:56;;;;;;;1.58;1.20;;;20.50;45.10;;;;;;5021556;28;20030;-48
2022/01/24 03:10:29;;;;;;;1.45;1.05;;;20.50;45.10;;;;;;5022095;28;20034;-46
2022/01/24 03:13:17;;;;;;;2.33;1.40;;;20.50;45.00;;;;;;5063581;28;20034;-44
2022/01/24 03:15:43;;;;;;;1.35;1.20;;;20.50;45.00;;;;;;5084233;28;20100;-46
2022/01/24 03:18:10;;;;;;;1.73;1.25;;;20.40;45.00;;;;;;5083970;28;20127;-44
2022/01/24 03:20:37;;;;;;;1.38;1.20;;;20.40;45.10;;;;;;5083594;28;20046;-46
2022/01/24 03:23:03;;;;;;;1.97;1.50;;;20.30;45.10;;;;;;5084502;28;20020;-44
2022/01/24 03:25:29;;;;;;;1.67;1.10;;;20.30;45.00;;;;;;5084131;28;20032;-45
2022/01/24 03:27:56;;;;;;;1.90;1.30;;;20.20;44.90;;;;;;5082506;28;20337;-46
2022/01/24 03:30:22;;;;;;;1.80;1.30;;;20.20;45.00;;;;;;5082631;28;20035;-45
2022/01/24 03:32:49;;;;;;;1.90;1.30;;;20.20;45.00;;;;;;5083822;28;20040;-46
2022/01/24 03:35:15;;;;;;;1.45;1.20;;;20.10;44.90;;;;;;5065825;28;20028;-46
2022/01/24 03:37:41;;;;;;;1.73;1.35;;;20.10;45.00;;;;;;5083128;28;20842;-45
2022/01/24 03:40:07;;;;;;;2.13;1.40;;;20.10;45.00;;;;;;5083156;28;20036;-44
2022/01/24 03:42:34;;;;;;;1.63;1.37;;;20.00;44.90;;;;;;5054331;28;20020;-45
2022/01/24 03:45:04;;;;;;;1.80;1.50;;;20.00;45.00;;;;;;5083458;28;20020;-44
2022/01/24 03:50:00;;;;;;;2.60;1.67;;;19.90;44.90;;;;;;5083837;28;20036;-45
2022/01/24 03:52:26;;;;;;;2.10;1.58;;;19.90;44.90;;;;;;5083292;28;20033;-45
2022/01/24 03:54:52;;;;;;;2.03;1.50;;;19.80;44.80;;;;;;5083138;28;20046;-44
2022/01/24 03:57:20;;;;;;;2.63;1.40;;;19.80;45.00;;;;;;5083731;28;20020;-43
2022/01/24 03:59:46;;;;;;;2.10;1.75;;;19.70;45.10;;;;;;5083706;28;20032;-45
2022/01/24 04:02:13;;;;;;;1.15;0.93;;;19.70;45.00;;;;;;5049846;28;20045;-43
2022/01/24 04:04:39;;;;;;;2.17;1.75;;;19.70;45.20;;;;;;5075661;28;20050;-46
2022/01/24 04:07:05;;;;;;;1.83;1.42;;;19.70;45.20;;;;;;5083122;28;20043;-44
2022/01/24 04:09:33;;;;;;;2.92;1.95;;;19.80;45.10;;;;;;5083609;28;20049;-46
2022/01/24 04:12:00;;;;;;;1.77;1.58;;;19.90;45.10;;;;;;5080839;28;20025;-46
2022/01/24 04:17:40;;;;;;;1.63;1.50;;;20.10;45.30;;;;;;5081989;28;20075;-45
2022/01/24 13:02:03;;;;;;;3.22;1.20;;;20.20;45.40;;;;;;5114440;27;20401;-44
2022/01/24 13:04:34;;;;;;;3.42;2.00;;;20.30;47.60;;;;;;5099185;28;20718;-44
2022/01/24 13:07:00;;;;;;;2.70;1.20;;;20.30;47.40;;;;;;5098690;28;20471;-44
2022/01/24 13:09:26;;;;;;;2.95;1.35;;;20.30;47.30;;;;;;5096953;28;20040;-47
2022/01/24 13:12:01;;;;;;;14.00;2.70;;;20.20;46.90;;;;;;5096547;28;20082;-43
2022/01/24 13:14:54;;;;;;;9.52;2.70;;;20.30;48.30;;;;;;5097549;28;20092;-45
2022/01/24 13:25:27;;;;;;;9.20;2.10;;;20.40;49.80;;;;;;5094624;28;20024;-49
2022/01/24 13:27:55;;;;;;;4.85;1.77;;;20.40;49.70;;;;;;5099397;28;20040;-44
2022/01/24 13:30:25;;;;;;;4.15;1.58;;;20.40;50.20;;;;;;5098683;28;20085;-44
2022/01/24 13:32:57;;;;;;;4.32;1.33;;;20.50;50.30;;;;;;5095981;28;20044;-46
2022/01/24 13:35:56;;;;;;;4.15;1.70;;;20.60;49.80;;;;;;5094018;28;20035;-44
2022/01/24 13:38:36;;;;;;;3.40;1.38;;;20.60;49.60;;;;;;5084168;28;20064;-46
2022/01/24 13:41:15;;;;;;;2.47;1.40;;;20.60;49.60;;;;;;5093486;28;20044;-45
2022/01/24 13:43:47;;;;;;;2.63;1.50;;;20.50;49.20;;;;;;5095873;28;20032;-45
2022/01/24 13:46:19;;;;;;;6.22;1.45;;;20.60;49.20;;;;;;5097136;28;20024;-46
2022/01/24 13:48:48;;;;;;;3.05;1.40;;;20.60;48.80;;;;;;5091338;28;20027;-46
2022/01/24 13:51:19;;;;;;;2.80;1.35;;;20.70;48.70;;;;;;5096419;28;20020;-44
2022/01/24 13:53:48;;;;;;;2.55;1.70;;;20.70;48.50;;;;;;5098404;28;20106;-44
2022/01/24 13:56:29;;;;;;;4.97;1.35;;;20.70;48.20;;;;;;5098262;28;20036;-46
2022/01/24 13:59:15;;;;;;;2.55;1.38;;;20.70;48.30;;;;;;5130704;28;20028;-45
2022/01/24 14:01:55;;;;;;;3.83;1.65;;;20.70;47.90;;;;;;5097606;28;20048;-46
2022/01/24 14:04:40;;;;;;;2.45;1.13;;;20.70;47.70;;;;;;5097895;28;20021;-45
2022/01/24 14:07:20;;;;;;;2.95;1.35;;;20.80;47.50;;;;;;5097391;28;20483;-47
2022/01/24 14:09:49;;;;;;;3.58;1.17;;;20.90;47.30;;;;;;5093367;28;20111;-46
2022/01/24 14:12:30;;;;;;;1.90;1.38;;;20.90;47.00;;;;;;5088393;28;20028;-46
2022/01/24 14:15:05;;;;;;;1.85;1.20;;;20.80;46.90;;;;;;5085140;28;20043;-46
2022/01/24 14:17:39;;;;;;;2.22;1.58;;;20.80;46.90;;;;;;5084205;28;20036;-44
2022/01/24 14:20:10;;;;;;;2.10;1.27;;;20.70;46.60;;;;;;5084632;28;20050;-46
2022/01/24 14:22:51;;;;;;;1.67;1.27;;;20.80;46.70;;;;;;5085059;28;20016;-46
2022/01/24 14:25:29;;;;;;;2.05;1.27;;;20.80;46.60;;;;;;5084842;28;20050;-46
2022/01/24 14:27:56;;;;;;;1.65;0.90;;;20.90;46.60;;;;;;5084779;28;20048;-46
2022/01/24 14:30:26;;;;;;;1.75;1.30;;;21.00;46.40;;;;;;5084235;28;20076;-44
2022/01/24 14:33:06;;;;;;;1.60;1.20;;;20.90;46.30;;;;;;5084878;28;20037;-46
2022/01/24 14:35:37;;;;;;;1.70;1.10;;;20.90;46.30;;;;;;5084834;28;20070;-47
2022/01/24 14:38:04;;;;;;;1.98;1.35;;;20.90;46.20;;;;;;5084670;28;20029;-45
2022/01/24 14:40:31;;;;;;;1.88;1.33;;;20.90;46.20;;;;;;5084501;28;20040;-46
2022/01/24 14:44:53;;;;;;;1.80;1.38;;;20.90;46.10;;;;;;5084625;28;20033;-47
2022/01/24 14:45:43;;;;;;;1.42;1.00;;;21.00;46.20;;;;;;5084544;28;20047;-44
2022/01/24 14:48:09;;;;;;;1.80;1.20;;;21.00;46.00;;;;;;5083785;28;20029;-45
2022/01/24 14:50:36;;;;;;;1.30;1.15;;;20.90;45.90;;;;;;5077316;28;20103;-45
2022/01/24 14:53:05;;;;;;;1.33;1.00;;;20.90;45.90;;;;;;5083867;28;20044;-45
2022/01/24 14:55:31;;;;;;;1.88;1.45;;;20.90;45.80;;;;;;5084216;28;20025;-45
2022/01/24 14:57:58;;;;;;;1.80;1.30;;;20.90;45.90;;;;;;5081493;28;20032;-45
2022/01/24 15:00:24;;;;;;;1.98;1.40;;;21.00;45.90;;;;;;5083738;28;20044;-46
2022/01/24 15:02:51;;;;;;;1.77;1.20;;;21.10;45.80;;;;;;5083297;28;20024;-46
2022/01/24 15:05:17;;;;;;;1.45;1.15;;;21.10;45.70;;;;;;5083964;28;20032;-45
2022/01/24 15:07:44;;;;;;;1.50;1.27;;;21.00;45.70;;;;;;5083404;28;20013;-44
2022/01/24 15:10:10;;;;;;;2.00;1.35;;;21.00;45.60;;;;;;5083988;28;20021;-45
2022/01/24 15:12:43;;;;;;;1.77;1.40;;;21.00;45.50;;;;;;5083792;28;20726;-45
2022/01/24 15:15:11;;;;;;;1.70;1.23;;;21.00;45.60;;;;;;5084187;28;20039;-45
2022/01/24 15:25:38;;;;;;;1.35;1.20;;;21.10;45.50;;;;;;5083540;28;20035;-48
2022/01/24 15:28:04;;;;;;;1.60;1.30;;;21.00;45.30;;;;;;5082812;28;20046;-47
2022/01/24 15:30:33;;;;;;;1.40;1.20;;;21.00;45.40;;;;;;5081725;28;20051;-46
2022/01/24 15:33:00;;;;;;;1.70;1.27;;;21.10;45.40;;;;;;5080782;28;20013;-45
2022/01/24 15:35:26;;;;;;;1.80;1.30;;;21.10;45.40;;;;;;5083171;28;20037;-45
2022/01/24 15:37:52;;;;;;;1.40;0.85;;;21.20;45.30;;;;;;5079682;28;20086;-46
2022/01/24 15:40:19;;;;;;;1.48;1.15;;;21.10;45.20;;;;;;5082647;28;20036;-46
2022/01/24 15:42:56;;;;;;;1.83;1.33;;;21.10;45.30;;;;;;5072032;28;20056;-48
2022/01/24 15:45:55;;;;;;;1.27;1.13;;;21.10;45.20;;;;;;5083160;28;20101;-44
2022/01/24 15:48:22;;;;;;;1.60;1.25;;;21.10;45.20;;;;;;5072519;28;20028;-45
2022/01/24 15:50:48;;;;;;;2.00;1.40;;;21.20;45.30;;;;;;5082619;28;20056;-45
2022/01/24 15:53:14;;;;;;;1.55;1.23;;;21.20;45.10;;;;;;5082877;28;20025;-45
2022/01/24 15:55:42;;;;;;;1.35;1.20;;;21.20;45.10;;;;;;5083000;28;20092;-47
2022/01/24 15:58:09;;;;;;;1.35;1.20;;;21.10;45.10;;;;;;5082162;28;20501;-45
2022/01/24 16:00:40;;;;;;;1.35;1.20;;;21.10;45.10;;;;;;5082423;28;20056;-45
2022/01/24 16:03:06;;;;;;;1.67;1.30;;;21.10;45.00;;;;;;5075249;28;20028;-45
2022/01/24 16:05:34;;;;;;;2.22;1.20;;;21.20;45.10;;;;;;5085213;28;20048;-46
2022/01/24 16:08:00;;;;;;;1.30;1.20;;;21.20;45.10;;;;;;5074721;28;20036;-45
2022/01/24 16:10:31;;;;;;;1.63;1.20;;;21.20;45.00;;;;;;5082699;28;20186;-45
2022/01/24 16:12:57;;;;;;;1.60;1.17;;;21.20;45.10;;;;;;5081123;28;20032;-45
2022/01/24 16:15:25;;;;;;;1.90;1.20;;;21.20;45.00;;;;;;5081357;28;20112;-45
2022/01/24 16:17:52;;;;;;;1.63;1.10;;;21.20;45.00;;;;;;5082502;28;20041;-47
2022/01/24 16:21:01;;;;;;;1.50;1.27;;;21.20;45.00;;;;;;5082296;28;20067;-49
2022/01/24 16:23:29;;;;;;;2.10;1.30;;;21.30;45.10;;;;;;5062451;28;20043;-46
2022/01/24 16:25:56;;;;;;;1.10;1.00;;;21.30;45.00;;;;;;5063011;28;20068;-47
2022/01/24 16:28:31;;;;;;;1.80;1.13;;;21.30;45.10;;;;;;5079759;28;20055;-46
2022/01/24 16:31:04;;;;;;;1.30;1.00;;;21.20;45.00;;;;;;5082778;28;20059;-47
2022/01/24 16:33:32;;;;;;;1.58;1.10;;;21.20;45.00;;;;;;5082090;28;20409;-46
2022/01/24 16:36:04;;;;;;;1.80;1.17;;;21.30;45.00;;;;;;5062117;28;20033;-46
2022/01/24 16:38:30;;;;;;;1.35;1.10;;;21.30;45.10;;;;;;5071987;28;20040;-45
2022/01/24 16:41:02;;;;;;;1.15;0.98;;;21.30;45.00;;;;;;5081929;28;20082;-46
2022/01/24 16:48:42;;;;;;;1.13;1.00;;;21.30;45.00;;;;;;5082249;28;20024;-48
2022/01/24 16:51:15;;;;;;;0.88;0.82;;;21.30;45.10;;;;;;5082251;28;20032;-46
2022/01/24 16:53:43;;;;;;;1.15;0.90;;;21.30;45.10;;;;;;5081597;28;20029;-49
2022/01/24 16:56:10;;;;;;;1.52;0.95;;;21.40;45.00;;;;;;5082532;28;20247;-45
2022/01/24 16:58:36;;;;;;;1.50;1.13;;;21.40;45.10;;;;;;5082403;28;20028;-45
2022/01/24 17:01:02;;;;;;;1.30;0.80;;;21.40;45.10;;;;;;5081489;28;20044;-48
2022/01/24 17:03:29;;;;;;;1.27;1.00;;;21.30;45.10;;;;;;5081971;28;20028;-46
2022/01/24 17:05:55;;;;;;;1.45;1.13;;;21.30;45.20;;;;;;5081994;28;20028;-45
2022/01/24 17:08:21;;;;;;;1.00;0.90;;;21.30;45.00;;;;;;5063813;28;20036;-44
2022/01/24 17:10:48;;;;;;;1.63;1.10;;;21.40;45.10;;;;;;5072114;28;20028;-46
2022/01/24 17:13:14;;;;;;;1.15;0.98;;;21.50;45.10;;;;;;5081599;28;20036;-45
2022/01/24 17:15:46;;;;;;;1.35;0.80;;;21.40;45.00;;;;;;5081991;28;20063;-45
2022/01/24 17:18:13;;;;;;;1.05;0.85;;;21.40;45.10;;;;;;5073457;28;20036;-47
2022/01/24 17:20:39;;;;;;;1.98;0.77;;;21.40;45.20;;;;;;5082128;28;20044;-46
2022/01/24 17:23:05;;;;;;;1.00;0.70;;;21.40;45.20;;;;;;5081956;28;20029;-46
2022/01/24 17:25:31;;;;;;;1.00;0.80;;;21.40;45.20;;;;;;5081672;28;20029;-47
2022/01/24 17:27:59;;;;;;;1.00;0.82;;;21.40;45.20;;;;;;5085519;28;20031;-45
2022/01/24 17:30:28;;;;;;;1.83;0.93;;;21.40;45.20;;;;;;5081298;28;20033;-47
2022/01/24 17:32:55;;;;;;;0.80;0.60;;;21.50;45.10;;;;;;5081336;28;20020;-45
2022/01/24 17:35:21;;;;;;;1.27;0.70;;;21.50;45.10;;;;;;5086261;28;20025;-46
2022/01/24 17:37:48;;;;;;;0.80;0.75;;;21.50;45.20;;;;;;5082370;28;20092;-46
2022/01/24 17:40:15;;;;;;;1.15;0.85;;;21.40;45.20;;;;;;5068191;28;20104;-46
2022/01/24 17:42:42;;;;;;;0.93;0.80;;;21.40;45.30;;;;;;5072850;28;20755;-45
2022/01/24 17:45:09;;;;;;;0.75;0.70;;;21.40;45.30;;;;;;5073665;28;20036;-45
2022/01/24 17:47:35;;;;;;;1.05;0.73;;;21.40;45.30;;;;;;5083487;28;20025;-46
2022/01/24 17:50:02;;;;;;;1.52;0.80;;;21.40;45.20;;;;;;5085391;28;20024;-45
2022/01/24 17:52:28;;;;;;;1.15;0.75;;;21.50;45.30;;;;;;5085143;28;20033;-46
2022/01/24 17:54:54;;;;;;;0.98;0.70;;;21.50;45.20;;;;;;5085100;28;20028;-47
2022/01/24 17:57:20;;;;;;;1.15;0.82;;;21.50;45.40;;;;;;5084591;28;20096;-48
2022/01/24 17:59:46;;;;;;;0.73;0.73;;;21.50;45.20;;;;;;5084954;28;20025;-46
2022/01/24 18:02:13;;;;;;;0.80;0.70;;;21.40;45.20;;;;;;5084943;28;20100;-46
2022/01/24 18:04:39;;;;;;;0.90;0.70;;;21.40;45.30;;;;;;5084879;28;20021;-45
2022/01/24 18:07:07;;;;;;;0.80;0.57;;;21.40;45.20;;;;;;5085287;28;20633;-46
2022/01/24 18:09:33;;;;;;;0.80;0.60;;;21.40;45.20;;;;;;5085187;28;20032;-45
2022/01/24 18:11:59;;;;;;;1.00;0.80;;;21.50;45.20;;;;;;5085020;28;20058;-45
2022/01/24 18:14:26;;;;;;;0.70;0.50;;;21.50;45.20;;;;;;5082679;28;20078;-46
2022/01/24 18:16:52;;;;;;;2.20;0.70;;;21.50;45.20;;;;;;5077347;28;20447;-48
2022/01/24 18:19:18;;;;;;;1.07;0.87;;;21.50;45.20;;;;;;5084564;28;20408;-48
2022/01/24 18:21:45;;;;;;;0.82;0.60;;;21.50;45.30;;;;;;5084869;28;20047;-45
2022/01/24 18:24:11;;;;;;;1.10;0.70;;;21.50;45.30;;;;;;5084221;28;20032;-45
2022/01/24 18:26:37;;;;;;;1.02;0.80;;;21.50;45.40;;;;;;5084016;28;20099;-46
2022/01/24 18:29:04;;;;;;;1.00;0.73;;;21.50;45.30;;;;;;5084487;28;20047;-46
2022/01/24 18:31:30;;;;;;;0.70;0.65;;;21.40;45.40;;;;;;5082818;28;20028;-46
2022/01/24 18:33:56;;;;;;;1.10;0.90;;;21.50;45.30;;;;;;5079384;28;20035;-45
2022/01/24 18:36:22;;;;;;;1.60;1.00;;;21.50;45.20;;;;;;5084076;28;20032;-45
2022/01/24 18:38:48;;;;;;;1.53;0.83;;;21.50;45.20;;;;;;5078880;28;20025;-45
2022/01/24 18:41:15;;;;;;;0.93;0.70;;;21.50;45.20;;;;;;5084129;28;20028;-48
2022/01/24 18:43:41;;;;;;;1.10;0.80;;;21.50;45.30;;;;;;5081508;28;20029;-45
2022/01/24 18:46:07;;;;;;;1.83;0.95;;;21.50;45.30;;;;;;5083558;28;20377;-46
2022/01/24 18:48:34;;;;;;;1.00;0.70;;;21.50;45.30;;;;;;5080181;28;20021;-46
2022/01/24 18:51:00;;;;;;;1.73;0.95;;;21.50;45.30;;;;;;5077509;28;20044;-48
2022/01/24 18:53:26;;;;;;;1.38;0.90;;;21.50;45.40;;;;;;5084417;28;20572;-45
2022/01/24 18:55:52;;;;;;;1.40;1.00;;;21.50;45.40;;;;;;5083789;28;20028;-47
2022/01/24 18:58:19;;;;;;;1.10;0.80;;;21.50;45.20;;;;;;5084131;28;20039;-46
2022/01/24 19:00:45;;;;;;;1.20;0.93;;;21.50;45.10;;;;;;5082998;28;20064;-48
2022/01/24 19:03:11;;;;;;;1.20;1.10;;;21.50;45.10;;;;;;5083747;28;20021;-48
2022/01/24 19:05:37;;;;;;;1.20;1.10;;;21.50;45.10;;;;;;5083080;28;20033;-45
2022/01/24 19:08:07;;;;;;;0.95;0.88;;;21.50;45.10;;;;;;5084114;28;20158;-48
2022/01/24 19:10:34;;;;;;;1.20;1.10;;;21.50;45.20;;;;;;5083705;28;20115;-49
2022/01/24 19:13:01;;;;;;;0.80;0.80;;;21.50;45.20;;;;;;5084029;28;20068;-46
2022/01/24 19:15:29;;;;;;;1.33;0.93;;;21.50;45.30;;;;;;5083484;28;20060;-48
2022/01/24 19:18:00;;;;;;;1.70;1.20;;;21.50;45.30;;;;;;5074455;28;20025;-45
2022/01/24 19:23:20;;;;;;;1.45;1.00;;;21.50;45.30;;;;;;5069064;28;20047;-45
2022/01/24 19:25:53;;;;;;;1.60;1.00;;;21.60;45.20;;;;;;5083341;28;20025;-41
2022/01/24 19:28:20;;;;;;;1.48;1.00;;;21.50;45.20;;;;;;5083320;28;20843;-41
2022/01/24 19:30:46;;;;;;;2.08;1.25;;;21.50;45.20;;;;;;5082887;28;20044;-41
2022/01/24 19:33:13;;;;;;;1.42;0.90;;;21.50;45.30;;;;;;5083244;28;20054;-43
2022/01/24 19:35:39;;;;;;;1.23;1.02;;;21.50;45.20;;;;;;5083202;28;20389;-39
2022/01/24 19:38:05;;;;;;;1.35;1.05;;;21.50;45.40;;;;;;5082594;28;20043;-41
2022/01/24 19:40:31;;;;;;;1.65;0.93;;;21.50;45.50;;;;;;5081459;28;20044;-42
2022/01/24 19:42:57;;;;;;;1.10;0.90;;;21.50;45.50;;;;;;5083733;28;20032;-41
2022/01/24 19:45:26;;;;;;;2.58;0.90;;;21.50;45.40;;;;;;5083296;28;20028;-42
2022/01/24 19:47:53;;;;;;;1.30;0.80;;;21.50;45.40;;;;;;5065967;28;20048;-43
2022/01/24 19:50:19;;;;;;;2.85;1.00;;;21.50;45.50;;;;;;5081348;28;20028;-41
2022/01/24 19:52:45;;;;;;;1.42;0.75;;;21.50;45.40;;;;;;5082812;28;20043;-41
2022/01/24 19:55:19;;;;;;;1.50;1.00;;;21.50;45.40;;;;;;5083114;28;20129;-42
2022/01/24 19:57:52;;;;;;;1.27;0.70;;;21.50;45.50;;;;;;5076597;28;20035;-41
2022/01/24 20:00:18;;;;;;;1.00;0.80;;;21.50;45.50;;;;;;5082482;28;20044;-41
2022/01/24 20:02:44;;;;;;;2.55;1.10;;;21.50;45.50;;;;;;5082397;28;20028;-43
2022/01/24 20:05:12;;;;;;;1.33;0.70;;;21.40;45.50;;;;;;5082712;28;20032;-41
2022/01/24 20:07:39;;;;;;;1.88;1.00;;;21.50;45.50;;;;;;5083067;28;20123;-42
2022/01/24 20:10:05;;;;;;;1.88;0.90;;;21.50;45.50;;;;;;5081603;28;20024;-42
2022/01/24 20:12:31;;;;;;;1.37;0.83;;;21.50;45.50;;;;;;5078170;28;20036;-41
2022/01/24 20:14:57;;;;;;;0.95;0.80;;;21.40;45.50;;;;;;5082334;28;20103;-41
2022/01/24 20:17:24;;;;;;;1.55;0.95;;;21.40;45.50;;;;;;5082362;28;20620;-41
2022/01/24 20:19:50;;;;;;;1.30;0.90;;;21.40;45.50;;;;;;5081912;28;20092;-41
2022/01/24 20:22:16;;;;;;;1.10;0.82;;;21.40;45.50;;;;;;5082707;28;20139;-44
2022/01/24 20:24:43;;;;;;;1.67;1.00;;;21.40;45.50;;;;;;5082940;28;20088;-42
2022/01/24 20:27:10;;;;;;;1.15;0.90;;;21.40;45.50;;;;;;5082995;28;20529;-41
2022/01/24 20:29:36;;;;;;;1.60;1.02;;;21.40;45.50;;;;;;5082836;28;20374;-41
2022/01/24 20:32:03;;;;;;;1.92;0.90;;;21.40;45.50;;;;;;5082252;28;20028;-43
2022/01/24 20:34:29;;;;;;;1.13;0.90;;;21.40;45.50;;;;;;5082887;28;20052;-42
2022/01/24 20:36:56;;;;;;;1.02;0.80;;;21.40;45.50;;;;;;5082827;28;20098;-43
2022/01/24 20:39:22;;;;;;;1.30;0.73;;;21.40;45.60;;;;;;5082479;28;20032;-42
2022/01/24 20:41:48;;;;;;;1.58;0.95;;;21.40;45.50;;;;;;5082508;28;20093;-41
2022/01/24 20:44:14;;;;;;;1.17;0.68;;;21.30;45.50;;;;;;5081168;28;20025;-43
2022/01/24 20:46:40;;;;;;;1.55;1.00;;;21.30;45.50;;;;;;5082120;28;20036;-42
2022/01/24 20:49:08;;;;;;;1.67;0.90;;;21.30;45.50;;;;;;5082562;28;20691;-41
2022/01/24 20:51:36;;;;;;;1.30;0.80;;;21.30;45.50;;;;;;5082482;28;20036;-42
2022/01/24 20:54:03;;;;;;;1.15;1.00;;;21.30;45.50;;;;;;5082678;28;20032;-43
2022/01/24 20:56:29;;;;;;;3.13;1.00;;;21.30;45.60;;;;;;5082765;28;20131;-43
2022/01/24 20:58:55;;;;;;;1.60;0.85;;;21.30;45.60;;;;;;5082112;28;20311;-42
2022/01/24 21:01:21;;;;;;;2.88;0.80;;;21.30;45.60;;;;;;5081857;28;20049;-41
2022/01/24 21:03:47;;;;;;;0.95;0.70;;;21.30;45.60;;;;;;5078039;28;20035;-42
2022/01/24 21:06:14;;;;;;;1.17;0.80;;;21.30;45.60;;;;;;5077264;28;20095;-43
2022/01/24 21:08:40;;;;;;;1.63;1.10;;;21.30;45.60;;;;;;5082446;28;20017;-41
2022/01/24 21:11:11;;;;;;;2.80;0.90;;;21.30;45.70;;;;;;5082353;28;20075;-42
2022/01/24 21:13:51;;;;;;;1.65;0.90;;;21.30;45.70;;;;;;5082707;28;20043;-41
2022/01/24 21:16:22;;;;;;;1.08;0.80;;;21.20;45.70;;;;;;5081548;28;20135;-44
2022/01/24 21:18:48;;;;;;;1.30;0.88;;;21.20;45.60;;;;;;5082286;28;20021;-42
2022/01/24 21:21:14;;;;;;;1.30;0.70;;;21.20;45.70;;;;;;5081717;28;20123;-41
2022/01/24 21:23:40;;;;;;;1.20;0.82;;;21.20;45.70;;;;;;5086472;28;20073;-43
2022/01/24 21:26:06;;;;;;;1.40;0.98;;;21.20;45.70;;;;;;5086030;28;20028;-43
2022/01/24 21:28:33;;;;;;;1.40;0.70;;;21.20;45.70;;;;;;5086421;28;20043;-41
2022/01/24 21:30:59;;;;;;;1.70;0.85;;;21.20;45.70;;;;;;5085800;28;20037;-42
2022/01/24 21:33:34;;;;;;;1.08;0.80;;;21.20;45.80;;;;;;5086227;28;20020;-41
2022/01/24 21:36:00;;;;;;;2.20;0.93;;;21.20;45.90;;;;;;5085758;28;20092;-41
2022/01/24 21:38:27;;;;;;;1.60;0.70;;;21.10;45.70;;;;;;5085948;28;20024;-41
2022/01/24 21:40:55;;;;;;;1.90;1.10;;;21.10;45.70;;;;;;5083083;28;20040;-41
2022/01/24 21:43:21;;;;;;;1.77;0.90;;;21.10;45.80;;;;;;5085673;28;20025;-44
2022/01/24 21:45:47;;;;;;;1.63;0.88;;;21.10;45.80;;;;;;5085777;28;20063;-42
2022/01/24 21:48:13;;;;;;;1.05;0.85;;;21.10;45.80;;;;;;5086008;28;20024;-42
2022/01/24 21:50:39;;;;;;;1.35;0.80;;;21.10;45.80;;;;;;5085580;28;20100;-41
2022/01/24 21:53:05;;;;;;;2.33;0.75;;;21.10;45.80;;;;;;5085490;28;20028;-41
2022/01/24 21:55:33;;;;;;;1.13;0.80;;;21.10;45.80;;;;;;5085817;28;20016;-42
2022/01/24 21:57:59;;;;;;;2.58;0.82;;;21.00;45.70;;;;;;5085331;28;20088;-41
2022/01/24 22:00:26;;;;;;;1.48;0.82;;;21.00;45.70;;;;;;5083606;28;20048;-41
2022/01/24 22:02:54;;;;;;;1.08;0.68;;;21.00;45.70;;;;;;5084493;28;20037;-41
2022/01/24 22:05:20;;;;;;;2.15;0.85;;;21.00;45.60;;;;;;5085514;28;20355;-42
2022/01/24 22:10:14;;;;;;;1.60;1.00;;;21.00;45.60;;;;;;5085202;28;20024;-42
2022/01/24 22:12:40;;;;;;;0.85;0.70;;;21.00;45.60;;;;;;5084929;28;20087;-44
2022/01/24 22:15:08;;;;;;;1.83;1.10;;;20.90;45.60;;;;;;5085344;28;20036;-42
2022/01/24 22:17:34;;;;;;;1.40;0.65;;;20.90;45.60;;;;;;5085040;28;20084;-41
2022/01/24 22:20:00;;;;;;;2.25;0.77;;;20.90;46.10;;;;;;5085224;28;20029;-41
2022/01/24 22:25:11;;;;;;;0.90;0.60;;;20.90;45.60;;;;;;5085192;28;20090;-42
2022/01/24 22:27:37;;;;;;;0.80;0.70;;;20.90;45.60;;;;;;5085359;28;20119;-41
2022/01/24 22:30:04;;;;;;;0.75;0.57;;;20.90;45.60;;;;;;5085208;28;20025;-41
2022/01/24 22:32:31;;;;;;;1.05;0.95;;;20.90;45.60;;;;;;5083670;28;20024;-41
2022/01/24 22:34:57;;;;;;;1.48;0.70;;;20.80;45.50;;;;;;5083131;28;20032;-43
2022/01/24 22:37:23;;;;;;;1.65;0.90;;;20.80;45.50;;;;;;5084957;28;20056;-40
2022/01/24 22:39:49;;;;;;;1.55;0.90;;;20.80;45.50;;;;;;5084624;28;20058;-44
2022/01/24 22:42:16;;;;;;;1.80;0.75;;;20.80;45.50;;;;;;5084921;28;20032;-41
2022/01/24 22:44:42;;;;;;;1.65;1.17;;;20.80;45.50;;;;;;5084702;28;20029;-43
2022/01/24 22:47:08;;;;;;;1.15;0.90;;;20.70;45.50;;;;;;5084101;28;20024;-41
2022/01/24 22:49:35;;;;;;;1.48;0.82;;;20.70;45.50;;;;;;5084835;28;20032;-42
2022/01/24 22:52:02;;;;;;;1.02;0.57;;;20.70;45.50;;;;;;5084820;28;20043;-48
2022/01/24 22:54:28;;;;;;;;;;;20.70;45.50;;;;;;5084248;28;20020;-41
2022/01/24 22:56:55;;;;;;;1.30;0.82;;;20.70;45.50;;;;;;5084541;28;19911;-40
2022/01/24 22:59:21;;;;;;;1.52;0.80;;;20.70;45.70;;;;;;5082082;28;20021;-41
2022/01/24 23:01:48;;;;;;;1.00;0.80;;;20.60;45.40;;;;;;5081178;28;20056;-44
2022/01/24 23:04:14;;;;;;;0.90;0.60;;;20.60;45.40;;;;;;5080731;28;20028;-42
2022/01/24 23:06:40;;;;;;;1.70;0.82;;;20.60;45.40;;;;;;5068504;28;20485;-41
2022/01/24 23:09:06;;;;;;;1.05;0.75;;;20.70;45.40;;;;;;5077885;28;20027;-42
2022/01/24 23:11:32;;;;;;;1.25;0.85;;;20.70;45.60;;;;;;5072018;28;20025;-41
2022/01/24 23:21:38;;;;;;;1.05;0.80;;;20.90;45.80;;;;;;5083963;28;20050;-41
2022/01/24 23:24:06;;;;;;;0.93;0.70;;;20.80;46.40;;;;;;5083530;28;20025;-42